sensor_id;sensor_type;location;lat;lon;timestamp;P1;durP1;ratioP1;P2;durP2;ratioP2
17201;SDS011;8717;53.588;10.176;2023-06-22T00:00:00;4.93;;;3.80;;
17201;SDS011;8717;53.588;10.176;2023-06-22T00:02:37;4.03;;;3.57;;
17201;SDS011;8717;53.588;10.176;2023-06-22T00:05:04;4.10;;;3.60;;
17201;SDS011;8717;53.588;10.176;2023-06-22T00:07:31;4.73;;;3.70;;
17201;SDS011;8717;53.588;10.176;2023-06-22T00:09:58;4.00;;;3.60;;
17201;SDS011;8717;53.588;10.176;2023-06-22T00:12:26;4.80;;;3.43;;
17201;SDS011;8717;53.588;10.176;2023-06-22T00:14:53;4.03;;;3.57;;
17201;SDS011;8717;53.588;10.176;2023-06-22T00:17:20;4.23;;;3.70;;
17201;SDS011;8717;53.588;10.176;2023-06-22T00:19:47;4.30;;;3.60;;
17201;SDS011;8717;53.588;10.176;2023-06-22T00:22:18;3.80;;;3.37;;
17201;SDS011;8717;53.588;10.176;2023-06-22T00:24:53;4.43;;;3.80;;
17201;SDS011;8717;53.588;10.176;2023-06-22T00:27:20;5.70;;;4.00;;
17201;SDS011;8717;53.588;10.176;2023-06-22T00:29:48;5.23;;;3.80;;
17201;SDS011;8717;53.588;10.176;2023-06-22T00:32:15;5.40;;;3.80;;
17201;SDS011;8717;53.588;10.176;2023-06-22T00:34:42;4.77;;;3.90;;
17201;SDS011;8717;53.588;10.176;2023-06-22T00:37:09;4.07;;;3.67;;
17201;SDS011;8717;53.588;10.176;2023-06-22T00:39:37;5.00;;;3.77;;
17201;SDS011;8717;53.588;10.176;2023-06-22T00:42:04;4.80;;;3.70;;
17201;SDS011;8717;53.588;10.176;2023-06-22T00:44:31;4.43;;;4.03;;
17201;SDS011;8717;53.588;10.176;2023-06-22T00:47:00;4.13;;;3.20;;
17201;SDS011;8717;53.588;10.176;2023-06-22T00:49:27;5.47;;;3.97;;
17201;SDS011;8717;53.588;10.176;2023-06-22T00:51:54;4.30;;;3.80;;
17201;SDS011;8717;53.588;10.176;2023-06-22T00:54:22;3.80;;;3.40;;
17201;SDS011;8717;53.588;10.176;2023-06-22T00:56:49;5.10;;;3.90;;
17201;SDS011;8717;53.588;10.176;2023-06-22T00:59:17;4.00;;;3.47;;
17201;SDS011;8717;53.588;10.176;2023-06-22T01:01:44;5.47;;;3.60;;
17201;SDS011;8717;53.588;10.176;2023-06-22T01:04:13;4.63;;;3.60;;
17201;SDS011;8717;53.588;10.176;2023-06-22T01:06:41;6.17;;;4.00;;
17201;SDS011;8717;53.588;10.176;2023-06-22T01:09:14;4.10;;;3.63;;
17201;SDS011;8717;53.588;10.176;2023-06-22T01:11:47;4.07;;;3.63;;
17201;SDS011;8717;53.588;10.176;2023-06-22T01:14:20;5.50;;;4.03;;
17201;SDS011;8717;53.588;10.176;2023-06-22T01:16:49;6.40;;;3.53;;
17201;SDS011;8717;53.588;10.176;2023-06-22T01:19:34;4.80;;;3.70;;
17201;SDS011;8717;53.588;10.176;2023-06-22T01:22:06;5.60;;;3.80;;
17201;SDS011;8717;53.588;10.176;2023-06-22T01:24:41;5.50;;;4.17;;
17201;SDS011;8717;53.588;10.176;2023-06-22T01:27:15;4.83;;;4.00;;
17201;SDS011;8717;53.588;10.176;2023-06-22T01:29:56;4.50;;;3.83;;
17201;SDS011;8717;53.588;10.176;2023-06-22T01:32:26;4.53;;;3.70;;
17201;SDS011;8717;53.588;10.176;2023-06-22T01:34:57;5.50;;;4.13;;
17201;SDS011;8717;53.588;10.176;2023-06-22T01:37:26;4.30;;;3.40;;
17201;SDS011;8717;53.588;10.176;2023-06-22T01:39:54;4.37;;;3.93;;
17201;SDS011;8717;53.588;10.176;2023-06-22T01:42:23;4.30;;;3.90;;
17201;SDS011;8717;53.588;10.176;2023-06-22T01:44:51;4.77;;;3.87;;
17201;SDS011;8717;53.588;10.176;2023-06-22T01:47:19;4.97;;;3.67;;
17201;SDS011;8717;53.588;10.176;2023-06-22T01:49:46;4.27;;;3.80;;
17201;SDS011;8717;53.588;10.176;2023-06-22T01:52:13;3.63;;;3.27;;
17201;SDS011;8717;53.588;10.176;2023-06-22T01:54:41;4.90;;;3.87;;
17201;SDS011;8717;53.588;10.176;2023-06-22T01:57:08;4.10;;;3.63;;
17201;SDS011;8717;53.588;10.176;2023-06-22T01:59:36;4.40;;;4.00;;
17201;SDS011;8717;53.588;10.176;2023-06-22T02:02:11;4.00;;;3.60;;
17201;SDS011;8717;53.588;10.176;2023-06-22T02:04:42;4.53;;;3.87;;
17201;SDS011;8717;53.588;10.176;2023-06-22T02:07:15;5.33;;;4.00;;
17201;SDS011;8717;53.588;10.176;2023-06-22T02:09:45;4.40;;;3.53;;
17201;SDS011;8717;53.588;10.176;2023-06-22T02:12:15;4.47;;;3.70;;
17201;SDS011;8717;53.588;10.176;2023-06-22T02:14:44;5.67;;;3.87;;
17201;SDS011;8717;53.588;10.176;2023-06-22T02:17:12;5.87;;;3.70;;
17201;SDS011;8717;53.588;10.176;2023-06-22T02:19:42;4.93;;;4.07;;
17201;SDS011;8717;53.588;10.176;2023-06-22T02:22:09;4.13;;;3.73;;
17201;SDS011;8717;53.588;10.176;2023-06-22T02:24:36;4.67;;;4.13;;
17201;SDS011;8717;53.588;10.176;2023-06-22T02:27:03;4.10;;;3.67;;
17201;SDS011;8717;53.588;10.176;2023-06-22T02:29:32;4.80;;;3.87;;
17201;SDS011;8717;53.588;10.176;2023-06-22T02:32:01;5.67;;;3.90;;
17201;SDS011;8717;53.588;10.176;2023-06-22T02:34:29;4.10;;;3.70;;
17201;SDS011;8717;53.588;10.176;2023-06-22T02:36:57;4.87;;;4.10;;
17201;SDS011;8717;53.588;10.176;2023-06-22T02:39:27;4.20;;;3.80;;
17201;SDS011;8717;53.588;10.176;2023-06-22T02:41:54;4.80;;;4.13;;
17201;SDS011;8717;53.588;10.176;2023-06-22T02:44:21;4.57;;;4.03;;
17201;SDS011;8717;53.588;10.176;2023-06-22T02:46:48;5.20;;;4.00;;
17201;SDS011;8717;53.588;10.176;2023-06-22T02:49:16;4.80;;;4.07;;
17201;SDS011;8717;53.588;10.176;2023-06-22T02:51:45;4.50;;;4.00;;
17201;SDS011;8717;53.588;10.176;2023-06-22T02:54:19;6.53;;;4.93;;
17201;SDS011;8717;53.588;10.176;2023-06-22T02:56:48;6.33;;;4.70;;
17201;SDS011;8717;53.588;10.176;2023-06-22T02:59:16;6.67;;;4.30;;
17201;SDS011;8717;53.588;10.176;2023-06-22T03:01:46;4.93;;;3.83;;
17201;SDS011;8717;53.588;10.176;2023-06-22T03:04:19;5.50;;;4.90;;
17201;SDS011;8717;53.588;10.176;2023-06-22T03:06:46;5.73;;;4.67;;
17201;SDS011;8717;53.588;10.176;2023-06-22T03:09:16;5.53;;;4.47;;
17201;SDS011;8717;53.588;10.176;2023-06-22T03:11:45;6.80;;;4.53;;
17201;SDS011;8717;53.588;10.176;2023-06-22T03:14:12;6.60;;;4.40;;
17201;SDS011;8717;53.588;10.176;2023-06-22T03:16:39;4.67;;;4.20;;
17201;SDS011;8717;53.588;10.176;2023-06-22T03:19:06;5.00;;;4.30;;
17201;SDS011;8717;53.588;10.176;2023-06-22T03:21:37;5.63;;;4.43;;
17201;SDS011;8717;53.588;10.176;2023-06-22T03:24:04;5.47;;;4.17;;
17201;SDS011;8717;53.588;10.176;2023-06-22T03:26:32;5.00;;;4.07;;
17201;SDS011;8717;53.588;10.176;2023-06-22T03:29:01;7.37;;;4.40;;
17201;SDS011;8717;53.588;10.176;2023-06-22T03:31:29;4.73;;;4.17;;
17201;SDS011;8717;53.588;10.176;2023-06-22T03:33:56;5.47;;;4.50;;
17201;SDS011;8717;53.588;10.176;2023-06-22T03:36:23;6.13;;;4.40;;
17201;SDS011;8717;53.588;10.176;2023-06-22T03:38:51;5.20;;;4.63;;
17201;SDS011;8717;53.588;10.176;2023-06-22T03:41:18;6.10;;;3.97;;
17201;SDS011;8717;53.588;10.176;2023-06-22T03:43:46;5.63;;;4.27;;
17201;SDS011;8717;53.588;10.176;2023-06-22T03:46:15;6.80;;;4.53;;
17201;SDS011;8717;53.588;10.176;2023-06-22T03:48:42;5.10;;;4.37;;
17201;SDS011;8717;53.588;10.176;2023-06-22T03:51:09;6.93;;;4.50;;
17201;SDS011;8717;53.588;10.176;2023-06-22T03:53:36;5.30;;;4.80;;
17201;SDS011;8717;53.588;10.176;2023-06-22T03:56:03;6.17;;;4.67;;
17201;SDS011;8717;53.588;10.176;2023-06-22T03:58:30;4.30;;;3.90;;
17201;SDS011;8717;53.588;10.176;2023-06-22T04:00:57;5.30;;;4.43;;
17201;SDS011;8717;53.588;10.176;2023-06-22T04:03:27;7.77;;;5.30;;
17201;SDS011;8717;53.588;10.176;2023-06-22T04:05:54;5.00;;;4.50;;
17201;SDS011;8717;53.588;10.176;2023-06-22T04:08:21;5.47;;;4.77;;
17201;SDS011;8717;53.588;10.176;2023-06-22T04:10:48;7.10;;;4.80;;
17201;SDS011;8717;53.588;10.176;2023-06-22T04:13:14;6.87;;;4.77;;
17201;SDS011;8717;53.588;10.176;2023-06-22T04:15:41;5.87;;;4.20;;
17201;SDS011;8717;53.588;10.176;2023-06-22T04:18:08;6.73;;;3.90;;
17201;SDS011;8717;53.588;10.176;2023-06-22T04:20:36;5.67;;;4.60;;
17201;SDS011;8717;53.588;10.176;2023-06-22T04:23:03;7.70;;;5.00;;
17201;SDS011;8717;53.588;10.176;2023-06-22T04:25:30;7.30;;;4.83;;
17201;SDS011;8717;53.588;10.176;2023-06-22T04:27:57;9.43;;;5.00;;
17201;SDS011;8717;53.588;10.176;2023-06-22T04:30:23;8.50;;;5.47;;
17201;SDS011;8717;53.588;10.176;2023-06-22T04:32:50;7.50;;;5.47;;
17201;SDS011;8717;53.588;10.176;2023-06-22T04:35:22;8.67;;;5.80;;
17201;SDS011;8717;53.588;10.176;2023-06-22T04:37:52;9.07;;;6.00;;
17201;SDS011;8717;53.588;10.176;2023-06-22T04:40:20;9.35;;;5.55;;
17201;SDS011;8717;53.588;10.176;2023-06-22T04:42:47;6.80;;;5.55;;
17201;SDS011;8717;53.588;10.176;2023-06-22T04:45:18;7.47;;;5.82;;
17201;SDS011;8717;53.588;10.176;2023-06-22T04:47:45;7.25;;;6.47;;
17201;SDS011;8717;53.588;10.176;2023-06-22T04:50:12;7.28;;;6.10;;
17201;SDS011;8717;53.588;10.176;2023-06-22T04:52:39;9.75;;;6.35;;
17201;SDS011;8717;53.588;10.176;2023-06-22T04:55:08;8.63;;;6.70;;
17201;SDS011;8717;53.588;10.176;2023-06-22T04:57:35;7.25;;;5.72;;
17201;SDS011;8717;53.588;10.176;2023-06-22T05:00:05;7.10;;;5.75;;
17201;SDS011;8717;53.588;10.176;2023-06-22T05:02:37;7.53;;;5.78;;
17201;SDS011;8717;53.588;10.176;2023-06-22T05:05:05;9.00;;;5.93;;
17201;SDS011;8717;53.588;10.176;2023-06-22T05:07:32;6.80;;;5.97;;
17201;SDS011;8717;53.588;10.176;2023-06-22T05:10:00;7.07;;;6.22;;
17201;SDS011;8717;53.588;10.176;2023-06-22T05:12:29;7.82;;;6.30;;
17201;SDS011;8717;53.588;10.176;2023-06-22T05:14:59;7.28;;;6.00;;
17201;SDS011;8717;53.588;10.176;2023-06-22T05:17:26;6.00;;;5.38;;
17201;SDS011;8717;53.588;10.176;2023-06-22T05:19:54;6.35;;;5.55;;
17201;SDS011;8717;53.588;10.176;2023-06-22T05:22:20;10.57;;;6.03;;
17201;SDS011;8717;53.588;10.176;2023-06-22T05:24:47;7.80;;;5.85;;
17201;SDS011;8717;53.588;10.176;2023-06-22T05:27:14;10.63;;;6.70;;
17201;SDS011;8717;53.588;10.176;2023-06-22T05:29:43;7.68;;;6.32;;
17201;SDS011;8717;53.588;10.176;2023-06-22T05:32:10;8.13;;;6.25;;
17201;SDS011;8717;53.588;10.176;2023-06-22T05:34:36;8.20;;;5.70;;
17201;SDS011;8717;53.588;10.176;2023-06-22T05:37:04;7.60;;;6.30;;
17201;SDS011;8717;53.588;10.176;2023-06-22T05:39:31;7.93;;;5.60;;
17201;SDS011;8717;53.588;10.176;2023-06-22T05:41:58;7.40;;;4.72;;
17201;SDS011;8717;53.588;10.176;2023-06-22T05:44:25;6.40;;;4.80;;
17201;SDS011;8717;53.588;10.176;2023-06-22T05:46:53;6.55;;;4.50;;
17201;SDS011;8717;53.588;10.176;2023-06-22T05:49:20;7.13;;;4.53;;
17201;SDS011;8717;53.588;10.176;2023-06-22T05:51:47;5.20;;;3.60;;
17201;SDS011;8717;53.588;10.176;2023-06-22T05:54:14;4.65;;;3.63;;
17201;SDS011;8717;53.588;10.176;2023-06-22T05:56:43;4.78;;;3.80;;
17201;SDS011;8717;53.588;10.176;2023-06-22T05:59:09;4.60;;;3.80;;
17201;SDS011;8717;53.588;10.176;2023-06-22T06:01:37;3.63;;;3.28;;
17201;SDS011;8717;53.588;10.176;2023-06-22T06:04:06;4.15;;;3.38;;
17201;SDS011;8717;53.588;10.176;2023-06-22T06:06:34;4.60;;;3.50;;
17201;SDS011;8717;53.588;10.176;2023-06-22T06:09:02;4.32;;;2.97;;
17201;SDS011;8717;53.588;10.176;2023-06-22T06:11:29;4.03;;;3.15;;
17201;SDS011;8717;53.588;10.176;2023-06-22T06:13:56;4.03;;;2.90;;
17201;SDS011;8717;53.588;10.176;2023-06-22T06:16:23;3.60;;;2.95;;
17201;SDS011;8717;53.588;10.176;2023-06-22T06:18:49;3.92;;;3.20;;
17201;SDS011;8717;53.588;10.176;2023-06-22T06:21:19;3.88;;;2.60;;
17201;SDS011;8717;53.588;10.176;2023-06-22T06:23:46;5.10;;;2.80;;
17201;SDS011;8717;53.588;10.176;2023-06-22T06:26:14;3.42;;;2.72;;
17201;SDS011;8717;53.588;10.176;2023-06-22T06:28:41;3.38;;;2.78;;
17201;SDS011;8717;53.588;10.176;2023-06-22T06:31:08;3.75;;;2.78;;
17201;SDS011;8717;53.588;10.176;2023-06-22T06:33:37;3.47;;;3.00;;
17201;SDS011;8717;53.588;10.176;2023-06-22T06:36:04;3.17;;;2.78;;
17201;SDS011;8717;53.588;10.176;2023-06-22T06:38:34;4.07;;;2.97;;
17201;SDS011;8717;53.588;10.176;2023-06-22T06:41:01;6.47;;;3.17;;
17201;SDS011;8717;53.588;10.176;2023-06-22T06:43:29;5.72;;;3.13;;
17201;SDS011;8717;53.588;10.176;2023-06-22T06:45:56;5.32;;;3.35;;
17201;SDS011;8717;53.588;10.176;2023-06-22T06:48:23;4.13;;;2.78;;
17201;SDS011;8717;53.588;10.176;2023-06-22T06:50:49;3.88;;;2.83;;
17201;SDS011;8717;53.588;10.176;2023-06-22T06:53:16;4.55;;;3.17;;
17201;SDS011;8717;53.588;10.176;2023-06-22T06:55:44;4.90;;;3.63;;
17201;SDS011;8717;53.588;10.176;2023-06-22T06:58:11;5.57;;;3.55;;
17201;SDS011;8717;53.588;10.176;2023-06-22T07:00:38;6.00;;;3.30;;
17201;SDS011;8717;53.588;10.176;2023-06-22T07:03:05;5.00;;;3.20;;
17201;SDS011;8717;53.588;10.176;2023-06-22T07:05:32;4.32;;;3.10;;
17201;SDS011;8717;53.588;10.176;2023-06-22T07:07:58;4.10;;;3.58;;
17201;SDS011;8717;53.588;10.176;2023-06-22T07:10:25;5.93;;;3.42;;
17201;SDS011;8717;53.588;10.176;2023-06-22T07:12:53;4.82;;;2.70;;
17201;SDS011;8717;53.588;10.176;2023-06-22T07:15:20;5.43;;;3.38;;
17201;SDS011;8717;53.588;10.176;2023-06-22T07:17:47;4.80;;;3.25;;
17201;SDS011;8717;53.588;10.176;2023-06-22T07:20:13;3.92;;;2.80;;
17201;SDS011;8717;53.588;10.176;2023-06-22T07:22:41;4.60;;;2.83;;
17201;SDS011;8717;53.588;10.176;2023-06-22T07:25:09;3.58;;;3.10;;
17201;SDS011;8717;53.588;10.176;2023-06-22T07:27:39;3.20;;;2.90;;
17201;SDS011;8717;53.588;10.176;2023-06-22T07:30:12;3.95;;;2.65;;
17201;SDS011;8717;53.588;10.176;2023-06-22T07:32:39;3.95;;;3.28;;
17201;SDS011;8717;53.588;10.176;2023-06-22T07:35:06;4.90;;;2.70;;
17201;SDS011;8717;53.588;10.176;2023-06-22T07:37:33;4.47;;;3.10;;
17201;SDS011;8717;53.588;10.176;2023-06-22T07:40:00;3.92;;;2.78;;
17201;SDS011;8717;53.588;10.176;2023-06-22T07:42:29;4.70;;;3.08;;
17201;SDS011;8717;53.588;10.176;2023-06-22T07:44:57;5.38;;;3.00;;
17201;SDS011;8717;53.588;10.176;2023-06-22T07:47:26;3.38;;;2.75;;
17201;SDS011;8717;53.588;10.176;2023-06-22T07:49:53;4.22;;;2.95;;
17201;SDS011;8717;53.588;10.176;2023-06-22T07:52:23;4.07;;;3.15;;
17201;SDS011;8717;53.588;10.176;2023-06-22T07:54:50;4.68;;;2.78;;
17201;SDS011;8717;53.588;10.176;2023-06-22T07:57:17;4.47;;;2.97;;
17201;SDS011;8717;53.588;10.176;2023-06-22T07:59:44;4.10;;;2.90;;
17201;SDS011;8717;53.588;10.176;2023-06-22T08:02:11;3.33;;;2.70;;
17201;SDS011;8717;53.588;10.176;2023-06-22T08:04:39;3.35;;;2.50;;
17201;SDS011;8717;53.588;10.176;2023-06-22T08:07:06;3.80;;;2.78;;
17201;SDS011;8717;53.588;10.176;2023-06-22T08:09:33;3.10;;;2.63;;
17201;SDS011;8717;53.588;10.176;2023-06-22T08:12:00;3.20;;;2.90;;
17201;SDS011;8717;53.588;10.176;2023-06-22T08:14:27;3.40;;;2.95;;
17201;SDS011;8717;53.588;10.176;2023-06-22T08:16:55;3.20;;;2.65;;
17201;SDS011;8717;53.588;10.176;2023-06-22T08:19:22;3.22;;;2.90;;
17201;SDS011;8717;53.588;10.176;2023-06-22T08:21:50;2.72;;;2.50;;
17201;SDS011;8717;53.588;10.176;2023-06-22T08:24:17;3.00;;;2.20;;
17201;SDS011;8717;53.588;10.176;2023-06-22T08:26:43;3.55;;;2.72;;
17201;SDS011;8717;53.588;10.176;2023-06-22T08:29:10;3.67;;;2.50;;
17201;SDS011;8717;53.588;10.176;2023-06-22T08:31:37;3.85;;;2.38;;
17201;SDS011;8717;53.588;10.176;2023-06-22T08:34:04;4.88;;;2.65;;
17201;SDS011;8717;53.588;10.176;2023-06-22T08:36:30;2.78;;;2.50;;
17201;SDS011;8717;53.588;10.176;2023-06-22T08:38:59;2.45;;;2.25;;
17201;SDS011;8717;53.588;10.176;2023-06-22T08:41:28;2.78;;;2.05;;
17201;SDS011;8717;53.588;10.176;2023-06-22T08:43:55;2.30;;;2.10;;
17201;SDS011;8717;53.588;10.176;2023-06-22T08:46:22;3.63;;;2.20;;
17201;SDS011;8717;53.588;10.176;2023-06-22T08:48:55;3.65;;;2.38;;
17201;SDS011;8717;53.588;10.176;2023-06-22T08:51:23;2.50;;;2.30;;
17201;SDS011;8717;53.588;10.176;2023-06-22T08:53:50;2.40;;;2.20;;
17201;SDS011;8717;53.588;10.176;2023-06-22T08:56:20;2.72;;;2.20;;
17201;SDS011;8717;53.588;10.176;2023-06-22T08:58:47;2.20;;;2.00;;
17201;SDS011;8717;53.588;10.176;2023-06-22T09:01:14;2.90;;;2.00;;
17201;SDS011;8717;53.588;10.176;2023-06-22T09:03:41;2.25;;;2.00;;
17201;SDS011;8717;53.588;10.176;2023-06-22T09:06:08;2.90;;;2.03;;
17201;SDS011;8717;53.588;10.176;2023-06-22T09:08:35;2.47;;;2.08;;
17201;SDS011;8717;53.588;10.176;2023-06-22T09:11:01;3.47;;;2.10;;
17201;SDS011;8717;53.588;10.176;2023-06-22T09:13:30;2.30;;;2.03;;
17201;SDS011;8717;53.588;10.176;2023-06-22T09:15:57;2.72;;;2.20;;
17201;SDS011;8717;53.588;10.176;2023-06-22T09:18:23;4.20;;;2.42;;
17201;SDS011;8717;53.588;10.176;2023-06-22T09:20:50;2.40;;;2.20;;
17201;SDS011;8717;53.588;10.176;2023-06-22T09:23:17;2.90;;;2.38;;
17201;SDS011;8717;53.588;10.176;2023-06-22T09:25:43;3.65;;;2.47;;
17201;SDS011;8717;53.588;10.176;2023-06-22T09:28:12;2.38;;;2.17;;
17201;SDS011;8717;53.588;10.176;2023-06-22T09:30:40;3.53;;;2.53;;
17201;SDS011;8717;53.588;10.176;2023-06-22T09:33:08;3.92;;;2.40;;
17201;SDS011;8717;53.588;10.176;2023-06-22T09:35:35;3.05;;;2.28;;
17201;SDS011;8717;53.588;10.176;2023-06-22T09:38:02;3.30;;;2.40;;
17201;SDS011;8717;53.588;10.176;2023-06-22T09:40:28;4.00;;;2.20;;
17201;SDS011;8717;53.588;10.176;2023-06-22T09:42:57;2.85;;;2.60;;
17201;SDS011;8717;53.588;10.176;2023-06-22T09:45:24;5.10;;;2.75;;
17201;SDS011;8717;53.588;10.176;2023-06-22T09:47:52;2.72;;;2.53;;
17201;SDS011;8717;53.588;10.176;2023-06-22T09:50:19;2.30;;;2.10;;
17201;SDS011;8717;53.588;10.176;2023-06-22T09:52:45;4.18;;;2.50;;
17201;SDS011;8717;53.588;10.176;2023-06-22T09:55:19;2.72;;;2.50;;
17201;SDS011;8717;53.588;10.176;2023-06-22T09:57:46;4.00;;;2.40;;
17201;SDS011;8717;53.588;10.176;2023-06-22T10:00:13;4.65;;;2.53;;
17201;SDS011;8717;53.588;10.176;2023-06-22T10:02:41;4.65;;;3.20;;
17201;SDS011;8717;53.588;10.176;2023-06-22T10:05:09;4.60;;;2.97;;
17201;SDS011;8717;53.588;10.176;2023-06-22T10:07:36;4.05;;;2.70;;
17201;SDS011;8717;53.588;10.176;2023-06-22T10:10:07;4.65;;;2.70;;
17201;SDS011;8717;53.588;10.176;2023-06-22T10:12:34;2.60;;;2.40;;
17201;SDS011;8717;53.588;10.176;2023-06-22T10:15:01;2.60;;;2.20;;
17201;SDS011;8717;53.588;10.176;2023-06-22T10:17:28;2.22;;;2.03;;
17201;SDS011;8717;53.588;10.176;2023-06-22T10:19:55;3.22;;;2.42;;
17201;SDS011;8717;53.588;10.176;2023-06-22T10:22:23;3.15;;;2.50;;
17201;SDS011;8717;53.588;10.176;2023-06-22T10:24:49;3.00;;;2.72;;
17201;SDS011;8717;53.588;10.176;2023-06-22T10:27:16;5.15;;;2.70;;
17201;SDS011;8717;53.588;10.176;2023-06-22T10:29:43;3.67;;;2.90;;
17201;SDS011;8717;53.588;10.176;2023-06-22T10:32:10;3.72;;;3.20;;
17201;SDS011;8717;53.588;10.176;2023-06-22T10:34:37;3.45;;;2.83;;
17201;SDS011;8717;53.588;10.176;2023-06-22T10:37:03;3.42;;;2.60;;
17201;SDS011;8717;53.588;10.176;2023-06-22T10:39:32;2.90;;;2.53;;
17201;SDS011;8717;53.588;10.176;2023-06-22T10:41:59;4.10;;;2.45;;
17201;SDS011;8717;53.588;10.176;2023-06-22T10:44:25;3.13;;;2.40;;
17201;SDS011;8717;53.588;10.176;2023-06-22T10:46:52;3.90;;;2.65;;
17201;SDS011;8717;53.588;10.176;2023-06-22T10:49:18;4.70;;;2.92;;
17201;SDS011;8717;53.588;10.176;2023-06-22T10:51:45;2.60;;;2.38;;
17201;SDS011;8717;53.588;10.176;2023-06-22T10:54:12;3.55;;;2.85;;
17201;SDS011;8717;53.588;10.176;2023-06-22T10:56:40;3.25;;;2.95;;
17201;SDS011;8717;53.588;10.176;2023-06-22T10:59:07;2.40;;;2.20;;
17201;SDS011;8717;53.588;10.176;2023-06-22T11:01:34;2.78;;;2.50;;
17201;SDS011;8717;53.588;10.176;2023-06-22T11:04:02;3.20;;;2.90;;
17201;SDS011;8717;53.588;10.176;2023-06-22T11:06:29;4.20;;;2.80;;
17201;SDS011;8717;53.588;10.176;2023-06-22T11:08:56;4.57;;;2.80;;
17201;SDS011;8717;53.588;10.176;2023-06-22T11:11:23;3.78;;;2.80;;
17201;SDS011;8717;53.588;10.176;2023-06-22T11:13:52;3.38;;;2.60;;
17201;SDS011;8717;53.588;10.176;2023-06-22T11:16:19;4.28;;;2.70;;
17201;SDS011;8717;53.588;10.176;2023-06-22T11:18:45;2.80;;;2.60;;
17201;SDS011;8717;53.588;10.176;2023-06-22T11:21:12;3.20;;;2.83;;
17201;SDS011;8717;53.588;10.176;2023-06-22T11:23:39;3.67;;;2.80;;
17201;SDS011;8717;53.588;10.176;2023-06-22T11:26:05;3.10;;;2.80;;
17201;SDS011;8717;53.588;10.176;2023-06-22T11:28:32;3.22;;;2.95;;
17201;SDS011;8717;53.588;10.176;2023-06-22T11:31:00;3.83;;;2.90;;
17201;SDS011;8717;53.588;10.176;2023-06-22T11:33:27;3.58;;;3.00;;
17201;SDS011;8717;53.588;10.176;2023-06-22T11:35:53;3.60;;;3.08;;
17201;SDS011;8717;53.588;10.176;2023-06-22T11:38:21;4.43;;;3.08;;
17201;SDS011;8717;53.588;10.176;2023-06-22T11:40:48;3.35;;;3.03;;
17201;SDS011;8717;53.588;10.176;2023-06-22T11:43:14;5.15;;;3.35;;
17201;SDS011;8717;53.588;10.176;2023-06-22T11:45:41;3.97;;;3.08;;
17201;SDS011;8717;53.588;10.176;2023-06-22T11:48:09;3.15;;;2.83;;
17201;SDS011;8717;53.588;10.176;2023-06-22T11:50:37;3.80;;;3.40;;
17201;SDS011;8717;53.588;10.176;2023-06-22T11:53:04;3.95;;;2.97;;
17201;SDS011;8717;53.588;10.176;2023-06-22T11:55:30;3.10;;;2.80;;
17201;SDS011;8717;53.588;10.176;2023-06-22T11:57:57;4.82;;;3.30;;
17201;SDS011;8717;53.588;10.176;2023-06-22T12:00:27;3.80;;;3.42;;
17201;SDS011;8717;53.588;10.176;2023-06-22T12:02:54;3.78;;;3.47;;
17201;SDS011;8717;53.588;10.176;2023-06-22T12:05:23;4.10;;;3.65;;
17201;SDS011;8717;53.588;10.176;2023-06-22T12:07:50;3.60;;;3.28;;
17201;SDS011;8717;53.588;10.176;2023-06-22T12:10:20;4.90;;;3.70;;
17201;SDS011;8717;53.588;10.176;2023-06-22T12:12:46;3.78;;;3.33;;
17201;SDS011;8717;53.588;10.176;2023-06-22T12:15:13;3.67;;;3.20;;
17201;SDS011;8717;53.588;10.176;2023-06-22T12:17:40;3.65;;;3.30;;
17201;SDS011;8717;53.588;10.176;2023-06-22T12:20:07;4.05;;;3.30;;
17201;SDS011;8717;53.588;10.176;2023-06-22T12:22:36;4.28;;;3.47;;
17201;SDS011;8717;53.588;10.176;2023-06-22T12:25:03;6.32;;;3.78;;
17201;SDS011;8717;53.588;10.176;2023-06-22T12:27:32;4.15;;;3.30;;
17201;SDS011;8717;53.588;10.176;2023-06-22T12:29:59;4.07;;;3.67;;
17201;SDS011;8717;53.588;10.176;2023-06-22T12:32:26;4.40;;;3.85;;
17201;SDS011;8717;53.588;10.176;2023-06-22T12:34:53;4.60;;;4.15;;
17201;SDS011;8717;53.588;10.176;2023-06-22T12:37:20;3.63;;;3.30;;
17201;SDS011;8717;53.588;10.176;2023-06-22T12:39:48;4.18;;;3.35;;
17201;SDS011;8717;53.588;10.176;2023-06-22T12:42:16;4.32;;;3.63;;
17201;SDS011;8717;53.588;10.176;2023-06-22T12:44:42;3.78;;;3.42;;
17201;SDS011;8717;53.588;10.176;2023-06-22T12:47:09;4.30;;;3.58;;
17201;SDS011;8717;53.588;10.176;2023-06-22T12:49:36;4.00;;;3.60;;
17201;SDS011;8717;53.588;10.176;2023-06-22T12:52:08;4.15;;;3.30;;
17201;SDS011;8717;53.588;10.176;2023-06-22T12:54:35;5.28;;;3.42;;
17201;SDS011;8717;53.588;10.176;2023-06-22T12:57:03;4.55;;;3.20;;
17201;SDS011;8717;53.588;10.176;2023-06-22T12:59:30;3.28;;;2.97;;
17201;SDS011;8717;53.588;10.176;2023-06-22T13:01:56;3.45;;;3.15;;
17201;SDS011;8717;53.588;10.176;2023-06-22T13:04:23;3.58;;;3.28;;
17201;SDS011;8717;53.588;10.176;2023-06-22T13:06:50;4.65;;;3.38;;
17201;SDS011;8717;53.588;10.176;2023-06-22T13:09:17;5.47;;;3.83;;
17201;SDS011;8717;53.588;10.176;2023-06-22T13:11:45;3.55;;;3.25;;
17201;SDS011;8717;53.588;10.176;2023-06-22T13:14:15;4.18;;;3.42;;
17201;SDS011;8717;53.588;10.176;2023-06-22T13:16:42;3.75;;;3.20;;
17201;SDS011;8717;53.588;10.176;2023-06-22T13:19:09;5.63;;;3.80;;
17201;SDS011;8717;53.588;10.176;2023-06-22T13:21:35;3.42;;;3.13;;
17201;SDS011;8717;53.588;10.176;2023-06-22T13:24:02;6.05;;;3.60;;
17201;SDS011;8717;53.588;10.176;2023-06-22T13:26:31;5.35;;;3.78;;
17201;SDS011;8717;53.588;10.176;2023-06-22T13:28:58;4.18;;;3.78;;
17201;SDS011;8717;53.588;10.176;2023-06-22T13:31:26;3.70;;;3.40;;
17201;SDS011;8717;53.588;10.176;2023-06-22T13:33:53;3.75;;;3.30;;
17201;SDS011;8717;53.588;10.176;2023-06-22T13:36:19;3.90;;;3.40;;
17201;SDS011;8717;53.588;10.176;2023-06-22T13:38:48;5.15;;;3.88;;
17201;SDS011;8717;53.588;10.176;2023-06-22T13:41:15;4.20;;;3.80;;
17201;SDS011;8717;53.588;10.176;2023-06-22T13:43:41;4.00;;;3.70;;
17201;SDS011;8717;53.588;10.176;2023-06-22T13:46:08;5.47;;;3.83;;
17201;SDS011;8717;53.588;10.176;2023-06-22T13:48:36;5.95;;;3.42;;
17201;SDS011;8717;53.588;10.176;2023-06-22T13:51:02;4.25;;;3.50;;
17201;SDS011;8717;53.588;10.176;2023-06-22T13:53:29;4.07;;;3.67;;
17201;SDS011;8717;53.588;10.176;2023-06-22T13:55:56;3.88;;;3.47;;
17201;SDS011;8717;53.588;10.176;2023-06-22T13:58:23;4.93;;;3.75;;
17201;SDS011;8717;53.588;10.176;2023-06-22T14:00:49;4.22;;;3.45;;
17201;SDS011;8717;53.588;10.176;2023-06-22T14:03:16;4.35;;;3.95;;
17201;SDS011;8717;53.588;10.176;2023-06-22T14:05:44;3.88;;;3.45;;
17201;SDS011;8717;53.588;10.176;2023-06-22T14:08:11;4.65;;;3.78;;
17201;SDS011;8717;53.588;10.176;2023-06-22T14:10:39;4.80;;;3.55;;
17201;SDS011;8717;53.588;10.176;2023-06-22T14:13:06;4.65;;;3.63;;
17201;SDS011;8717;53.588;10.176;2023-06-22T14:15:33;3.90;;;3.50;;
17201;SDS011;8717;53.588;10.176;2023-06-22T14:17:59;5.13;;;4.03;;
17201;SDS011;8717;53.588;10.176;2023-06-22T14:20:26;4.45;;;3.53;;
17201;SDS011;8717;53.588;10.176;2023-06-22T14:22:54;4.63;;;3.55;;
17201;SDS011;8717;53.588;10.176;2023-06-22T14:25:21;6.43;;;3.83;;
17201;SDS011;8717;53.588;10.176;2023-06-22T14:27:47;4.40;;;4.00;;
17201;SDS011;8717;53.588;10.176;2023-06-22T14:30:14;6.47;;;3.88;;
17201;SDS011;8717;53.588;10.176;2023-06-22T14:32:42;4.63;;;3.83;;
17201;SDS011;8717;53.588;10.176;2023-06-22T14:35:10;4.20;;;3.70;;
17201;SDS011;8717;53.588;10.176;2023-06-22T14:37:36;4.10;;;3.70;;
17201;SDS011;8717;53.588;10.176;2023-06-22T14:40:05;4.95;;;4.45;;
17201;SDS011;8717;53.588;10.176;2023-06-22T14:42:32;5.07;;;4.60;;
17201;SDS011;8717;53.588;10.176;2023-06-22T14:44:59;5.28;;;4.63;;
17201;SDS011;8717;53.588;10.176;2023-06-22T14:47:26;5.05;;;4.30;;
17201;SDS011;8717;53.588;10.176;2023-06-22T14:49:53;5.35;;;4.82;;